Time;durP1;ratioP1;P1;durP2;ratioP2;P2;SDS_P1;SDS_P2;PMS_P1;PMS_P2;Temp;Humidity;BMP_temperature;BMP_pressure;BME280_temperature;BME280_humidity;BME280_pressure;Samples;Min_cycle;Max_cycle;Signal;HPM_P1;HPM_P2
2024/03/31 00:02:11;;;;;;;44.17;30.93;;;;;;;;;;5013121;28;20401;-79
2024/03/31 00:04:37;;;;;;;46.77;30.17;;;;;;;;;;5012973;28;20914;-79
2024/03/31 00:07:04;;;;;;;41.73;30.43;;;;;;;;;;5012708;28;20225;-83
2024/03/31 00:09:30;;;;;;;45.27;33.30;;;;;;;;;;5013194;28;20440;-80
2024/03/31 00:11:56;;;;;;;47.67;32.87;;;;;;;;;;5011953;28;20428;-78
2024/03/31 00:14:22;;;;;;;47.80;33.80;;;;;;;;;;5012976;28;20826;-79
2024/03/31 00:16:48;;;;;;;48.97;34.23;;;;;;;;;;5013210;28;20509;-87
2024/03/31 00:19:14;;;;;;;45.03;35.10;;;;;;;;;;5012705;28;20523;-79
2024/03/31 00:21:39;;;;;;;51.90;36.17;;;;;;;;;;5012145;28;20173;-83
2024/03/31 00:24:05;;;;;;;50.17;34.87;;;;;;;;;;5013223;28;20520;-87
2024/03/31 00:26:31;;;;;;;48.50;36.80;;;;;;;;;;5013312;28;20171;-81
2024/03/31 00:28:57;;;;;;;47.57;35.10;;;;;;;;;;5016897;28;20445;-80
2024/03/31 00:31:24;;;;;;;51.40;38.90;;;;;;;;;;5017294;28;20228;-80
2024/03/31 00:33:50;;;;;;;51.10;39.37;;;;;;;;;;5017146;28;20471;-79
2024/03/31 00:36:15;;;;;;;53.37;38.83;;;;;;;;;;5017166;28;20879;-87
2024/03/31 00:38:42;;;;;;;50.70;40.50;;;;;;;;;;5016723;28;20572;-81
2024/03/31 00:41:08;;;;;;;55.43;42.53;;;;;;;;;;5017052;28;20167;-81
2024/03/31 00:43:34;;;;;;;55.27;44.83;;;;;;;;;;5016970;28;20421;-79
2024/03/31 00:46:00;;;;;;;56.03;46.30;;;;;;;;;;5016930;28;20550;-79
2024/03/31 00:48:26;;;;;;;53.07;44.23;;;;;;;;;;5010962;28;20183;-79
2024/03/31 00:50:52;;;;;;;63.47;45.67;;;;;;;;;;5016592;28;20245;-83
2024/03/31 00:53:18;;;;;;;54.07;44.30;;;;;;;;;;5016558;28;20208;-81
2024/03/31 00:55:44;;;;;;;50.73;44.90;;;;;;;;;;5017008;28;20267;-84
2024/03/31 00:58:09;;;;;;;54.50;45.00;;;;;;;;;;5016828;28;20565;-81
2024/03/31 01:00:35;;;;;;;57.50;45.20;;;;;;;;;;5017030;28;20421;-81
2024/03/31 01:03:01;;;;;;;55.37;44.17;;;;;;;;;;5016526;28;20425;-80
2024/03/31 01:05:28;;;;;;;53.70;44.63;;;;;;;;;;5016821;28;20163;-85
2024/03/31 01:07:54;;;;;;;58.60;46.60;;;;;;;;;;5016306;28;20431;-79
2024/03/31 01:10:20;;;;;;;52.20;43.50;;;;;;;;;;5016651;28;20464;-83
2024/03/31 01:12:46;;;;;;;53.50;47.70;;;;;;;;;;5016572;28;20504;-83
2024/03/31 01:15:12;;;;;;;52.13;41.37;;;;;;;;;;5015235;28;20536;-86
2024/03/31 01:17:38;;;;;;;46.47;38.00;;;;;;;;;;5016558;28;20178;-78
2024/03/31 01:20:05;;;;;;;42.60;32.83;;;;;;;;;;5014613;28;20429;-79
2024/03/31 01:22:32;;;;;;;37.13;30.33;;;;;;;;;;5015796;28;20202;-79
2024/03/31 01:24:58;;;;;;;43.63;32.90;;;;;;;;;;5016439;28;20438;-78
2024/03/31 01:27:24;;;;;;;33.97;27.40;;;;;;;;;;5016258;28;20505;-78
2024/03/31 01:29:50;;;;;;;34.83;27.50;;;;;;;;;;5016252;28;20419;-84
2024/03/31 01:32:16;;;;;;;37.47;28.10;;;;;;;;;;5016161;28;20418;-84
2024/03/31 01:34:44;;;;;;;31.20;26.30;;;;;;;;;;5016442;28;20514;-89
2024/03/31 01:37:10;;;;;;;29.90;25.57;;;;;;;;;;5015756;28;20506;-78
2024/03/31 01:39:36;;;;;;;31.43;25.20;;;;;;;;;;5014705;28;20558;-83
2024/03/31 01:42:02;;;;;;;30.27;24.53;;;;;;;;;;5016256;28;20973;-79
2024/03/31 01:44:28;;;;;;;31.00;23.03;;;;;;;;;;5016093;28;20456;-86
2024/03/31 01:46:54;;;;;;;27.77;22.40;;;;;;;;;;5015954;28;20433;-85
2024/03/31 01:49:20;;;;;;;27.80;21.83;;;;;;;;;;5016035;28;20852;-78
2024/03/31 01:51:45;;;;;;;24.13;21.47;;;;;;;;;;5015665;28;20171;-89
2024/03/31 01:54:11;;;;;;;27.33;20.20;;;;;;;;;;5015977;28;20910;-83
2024/03/31 01:56:37;;;;;;;21.40;18.83;;;;;;;;;;5015836;28;20413;-81
2024/03/31 01:59:03;;;;;;;20.40;17.77;;;;;;;;;;5015665;28;20560;-80
2024/03/31 02:01:30;;;;;;;19.00;17.03;;;;;;;;;;5015577;28;20414;-81
2024/03/31 02:03:55;;;;;;;23.43;18.30;;;;;;;;;;5015814;28;20413;-81
2024/03/31 02:06:21;;;;;;;19.10;16.37;;;;;;;;;;5015410;28;20436;-78
2024/03/31 02:08:49;;;;;;;21.57;17.50;;;;;;;;;;5015664;28;20900;-85
2024/03/31 02:11:15;;;;;;;18.70;16.70;;;;;;;;;;5015573;28;20412;-88
2024/03/31 02:13:41;;;;;;;17.53;15.13;;;;;;;;;;5015345;28;20822;-79
2024/03/31 02:16:07;;;;;;;17.63;15.73;;;;;;;;;;5015660;28;20176;-78
2024/03/31 02:18:32;;;;;;;19.07;15.97;;;;;;;;;;5015351;28;20480;-86
2024/03/31 02:20:58;;;;;;;23.80;18.43;;;;;;;;;;5015334;28;20438;-78
2024/03/31 02:23:24;;;;;;;19.60;17.07;;;;;;;;;;5014885;28;20177;-77
2024/03/31 02:25:50;;;;;;;16.93;14.53;;;;;;;;;;5015276;28;20794;-85
2024/03/31 02:28:16;;;;;;;19.27;16.60;;;;;;;;;;5012003;28;20204;-80
2024/03/31 02:30:42;;;;;;;15.80;13.63;;;;;;;;;;5002105;28;20554;-77
2024/03/31 02:33:08;;;;;;;18.83;14.03;;;;;;;;;;5005270;28;20172;-79
2024/03/31 02:35:34;;;;;;;15.60;12.50;;;;;;;;;;5005439;28;20415;-80
2024/03/31 02:38:00;;;;;;;19.47;12.40;;;;;;;;;;5004620;28;20209;-84
2024/03/31 02:40:26;;;;;;;14.77;12.20;;;;;;;;;;5003688;28;20531;-79
2024/03/31 02:42:52;;;;;;;16.60;13.43;;;;;;;;;;5005062;28;20511;-83
2024/03/31 02:45:18;;;;;;;15.77;11.90;;;;;;;;;;5003390;28;20577;-85
2024/03/31 02:47:44;;;;;;;15.17;12.27;;;;;;;;;;5003636;28;20316;-78
2024/03/31 02:50:10;;;;;;;14.00;11.83;;;;;;;;;;5005172;28;20515;-82
2024/03/31 02:52:36;;;;;;;14.27;11.90;;;;;;;;;;5003868;28;20169;-89
2024/03/31 02:55:03;;;;;;;16.13;12.90;;;;;;;;;;5003887;28;20178;-79
2024/03/31 02:57:29;;;;;;;16.73;13.63;;;;;;;;;;5005412;28;20407;-78
2024/03/31 02:59:55;;;;;;;23.03;16.60;;;;;;;;;;5003963;28;20475;-78
2024/03/31 03:02:21;;;;;;;22.43;17.20;;;;;;;;;;5004088;28;20811;-78
2024/03/31 03:04:47;;;;;;;19.97;15.03;;;;;;;;;;5005101;28;20411;-85
2024/03/31 03:07:13;;;;;;;22.60;15.10;;;;;;;;;;5003284;28;20188;-82
2024/03/31 03:09:39;;;;;;;17.90;15.03;;;;;;;;;;5004305;28;20173;-83
2024/03/31 03:12:05;;;;;;;19.03;14.50;;;;;;;;;;5005034;28;20784;-79
2024/03/31 03:14:31;;;;;;;18.97;15.93;;;;;;;;;;5003033;28;20221;-80
2024/03/31 03:16:56;;;;;;;19.60;15.23;;;;;;;;;;5003273;28;20419;-87
2024/03/31 03:19:22;;;;;;;23.67;15.83;;;;;;;;;;5003252;28;20228;-78
2024/03/31 03:21:50;;;;;;;18.60;14.57;;;;;;;;;;5002525;28;20196;-86
2024/03/31 03:24:16;;;;;;;19.93;14.37;;;;;;;;;;5004084;28;20184;-80
2024/03/31 03:26:45;;;;;;;21.37;14.47;;;;;;;;;;5004371;28;20418;-89
2024/03/31 03:29:11;;;;;;;22.20;16.40;;;;;;;;;;5002120;28;20645;-78
2024/03/31 03:31:37;;;;;;;20.27;14.90;;;;;;;;;;5002447;28;20418;-80
2024/03/31 03:34:03;;;;;;;21.20;15.30;;;;;;;;;;5004894;28;20208;-84
2024/03/31 03:36:28;;;;;;;19.20;15.07;;;;;;;;;;5004489;28;20411;-81
2024/03/31 03:38:54;;;;;;;22.90;15.87;;;;;;;;;;5003270;28;20204;-78
2024/03/31 03:41:20;;;;;;;22.77;15.63;;;;;;;;;;5003381;28;20176;-77
2024/03/31 03:43:46;;;;;;;20.30;15.70;;;;;;;;;;5005015;28;20283;-80
2024/03/31 03:46:12;;;;;;;21.87;16.27;;;;;;;;;;5003320;28;20420;-78
2024/03/31 03:48:38;;;;;;;21.90;15.67;;;;;;;;;;5014072;28;20423;-84
2024/03/31 03:51:04;;;;;;;21.60;16.10;;;;;;;;;;5013573;28;20513;-77
2024/03/31 03:53:30;;;;;;;18.80;13.50;;;;;;;;;;5014215;28;20182;-89
2024/03/31 03:55:56;;;;;;;19.50;13.83;;;;;;;;;;5013837;28;20423;-80
2024/03/31 03:58:22;;;;;;;20.97;14.43;;;;;;;;;;5013644;28;20455;-78
2024/03/31 04:00:49;;;;;;;21.60;15.47;;;;;;;;;;5013696;28;20424;-78
2024/03/31 04:03:15;;;;;;;23.63;15.47;;;;;;;;;;5012995;28;20411;-77
2024/03/31 04:05:41;;;;;;;26.80;16.87;;;;;;;;;;5013729;28;20422;-78
2024/03/31 04:08:07;;;;;;;21.10;15.27;;;;;;;;;;5013105;28;20267;-78
2024/03/31 04:10:38;;;;;;;19.50;14.73;;;;;;;;;;5013602;28;20474;-78
2024/03/31 04:13:04;;;;;;;21.37;14.10;;;;;;;;;;5013519;28;20419;-78
2024/03/31 04:15:30;;;;;;;23.70;16.30;;;;;;;;;;5013586;28;20493;-89
2024/03/31 04:17:56;;;;;;;25.00;16.37;;;;;;;;;;5013963;28;21031;-78
2024/03/31 04:20:21;;;;;;;23.10;14.87;;;;;;;;;;5013624;28;20180;-90
2024/03/31 04:22:47;;;;;;;20.93;14.50;;;;;;;;;;5013384;28;20625;-88
2024/03/31 04:25:13;;;;;;;21.10;16.17;;;;;;;;;;5005894;28;20230;-89
2024/03/31 04:27:39;;;;;;;20.80;15.50;;;;;;;;;;5004650;28;20585;-90
2024/03/31 04:30:05;;;;;;;20.00;15.17;;;;;;;;;;5002387;28;20769;-86
2024/03/31 04:32:31;;;;;;;22.70;16.00;;;;;;;;;;5002769;28;20232;-86
2024/03/31 04:34:57;;;;;;;25.00;17.63;;;;;;;;;;5001246;28;20457;-84
2024/03/31 04:37:23;;;;;;;23.67;15.03;;;;;;;;;;5003081;28;20184;-90
2024/03/31 04:39:52;;;;;;;21.70;15.43;;;;;;;;;;5003448;28;20263;-90
2024/03/31 04:42:18;;;;;;;21.93;16.60;;;;;;;;;;5001902;28;20416;-86
2024/03/31 04:44:44;;;;;;;27.30;15.37;;;;;;;;;;5003564;28;20468;-87
2024/03/31 04:47:10;;;;;;;22.03;15.60;;;;;;;;;;5002837;28;20661;-85
2024/03/31 04:49:36;;;;;;;19.37;15.83;;;;;;;;;;5001854;28;20516;-84
2024/03/31 04:52:02;;;;;;;22.97;15.70;;;;;;;;;;5004571;28;20614;-90
2024/03/31 04:54:28;;;;;;;24.67;15.57;;;;;;;;;;5003620;28;20268;-88
2024/03/31 04:56:53;;;;;;;22.17;15.30;;;;;;;;;;5004011;28;20498;-86
2024/03/31 04:59:19;;;;;;;21.70;16.57;;;;;;;;;;5004595;28;20469;-86
2024/03/31 05:01:45;;;;;;;23.70;16.47;;;;;;;;;;5002422;28;20410;-79
2024/03/31 05:04:11;;;;;;;23.80;16.33;;;;;;;;;;5002537;28;20530;-81
2024/03/31 05:06:37;;;;;;;23.60;15.63;;;;;;;;;;5003377;28;20178;-81
2024/03/31 05:09:03;;;;;;;26.83;17.97;;;;;;;;;;5003802;28;20475;-79
2024/03/31 05:11:29;;;;;;;22.37;15.53;;;;;;;;;;5002642;28;20413;-80
2024/03/31 05:13:55;;;;;;;19.70;15.40;;;;;;;;;;5001964;28;20868;-79
2024/03/31 05:16:21;;;;;;;29.60;19.30;;;;;;;;;;5007293;28;20450;-80
2024/03/31 05:18:50;;;;;;;21.00;15.43;;;;;;;;;;5005723;28;20558;-79
2024/03/31 05:21:16;;;;;;;21.30;16.97;;;;;;;;;;5004715;28;20665;-79
2024/03/31 05:23:45;;;;;;;22.67;15.80;;;;;;;;;;5007001;28;20427;-79
2024/03/31 05:26:12;;;;;;;23.37;16.27;;;;;;;;;;5006259;28;20427;-79
2024/03/31 05:28:38;;;;;;;24.40;16.27;;;;;;;;;;5005044;28;20465;-79
2024/03/31 05:31:04;;;;;;;21.97;15.67;;;;;;;;;;5006904;28;20441;-78
2024/03/31 05:33:30;;;;;;;24.67;18.37;;;;;;;;;;5005991;28;21042;-79
2024/03/31 05:35:56;;;;;;;23.57;17.00;;;;;;;;;;5003503;28;20467;-80
2024/03/31 05:38:22;;;;;;;21.70;15.90;;;;;;;;;;5006769;28;21018;-80
2024/03/31 05:40:48;;;;;;;23.50;16.20;;;;;;;;;;5005694;28;20516;-78
2024/03/31 05:43:14;;;;;;;24.17;16.63;;;;;;;;;;5005187;28;20403;-81
2024/03/31 05:45:41;;;;;;;25.47;18.67;;;;;;;;;;5006604;28;20421;-77
2024/03/31 05:48:07;;;;;;;22.13;16.37;;;;;;;;;;5005277;28;20421;-78
2024/03/31 05:50:33;;;;;;;24.92;18.73;;;;;;;;;;5004284;28;20837;-78
2024/03/31 05:52:59;;;;;;;22.90;15.57;;;;;;;;;;5006543;28;20206;-78
2024/03/31 05:55:25;;;;;;;25.38;17.50;;;;;;;;;;5004298;28;20445;-79
2024/03/31 05:57:51;;;;;;;22.80;16.40;;;;;;;;;;5005121;28;20183;-78
2024/03/31 06:00:17;;;;;;;23.60;18.13;;;;;;;;;;5006480;28;20429;-78
2024/03/31 06:02:43;;;;;;;21.83;16.17;;;;;;;;;;5003223;28;20817;-79
2024/03/31 06:05:09;;;;;;;25.63;16.60;;;;;;;;;;5005395;28;20471;-78
2024/03/31 06:07:36;;;;;;;25.63;16.60;;;;;;;;;;5005692;28;20413;-78
2024/03/31 06:10:02;;;;;;;18.90;14.87;;;;;;;;;;5004190;28;20175;-79
2024/03/31 06:12:27;;;;;;;20.80;15.77;;;;;;;;;;5005386;28;20455;-78
2024/03/31 06:14:53;;;;;;;29.53;17.03;;;;;;;;;;5005463;28;20469;-79
2024/03/31 06:17:20;;;;;;;23.17;17.30;;;;;;;;;;5004011;28;20339;-83
2024/03/31 06:19:46;;;;;;;19.60;15.40;;;;;;;;;;5005524;28;20714;-79
2024/03/31 06:22:12;;;;;;;20.70;14.70;;;;;;;;;;5004975;28;20498;-79
2024/03/31 06:24:38;;;;;;;23.77;15.30;;;;;;;;;;5003714;28;20423;-78
2024/03/31 06:27:04;;;;;;;21.83;15.27;;;;;;;;;;5005343;28;20914;-80
2024/03/31 06:29:30;;;;;;;20.73;14.97;;;;;;;;;;5018945;28;20392;-78
2024/03/31 06:31:56;;;;;;;20.93;15.60;;;;;;;;;;5028653;28;20424;-81
2024/03/31 06:34:22;;;;;;;20.03;15.00;;;;;;;;;;5013199;28;20413;-87
2024/03/31 06:36:47;;;;;;;20.87;13.83;;;;;;;;;;5004666;28;20184;-87
2024/03/31 06:39:13;;;;;;;21.37;15.10;;;;;;;;;;5004491;28;20237;-89
2024/03/31 06:41:39;;;;;;;19.10;14.10;;;;;;;;;;5006177;28;20494;-86
2024/03/31 06:44:05;;;;;;;18.83;13.10;;;;;;;;;;5005395;28;20885;-84
2024/03/31 06:46:31;;;;;;;19.73;12.80;;;;;;;;;;5004851;28;20756;-80
2024/03/31 06:48:57;;;;;;;19.00;14.13;;;;;;;;;;5003705;28;20427;-83
2024/03/31 06:51:24;;;;;;;18.33;15.43;;;;;;;;;;5004966;28;20419;-81
2024/03/31 06:53:50;;;;;;;20.20;15.27;;;;;;;;;;5004373;28;20181;-78
2024/03/31 06:56:16;;;;;;;18.53;13.80;;;;;;;;;;5003485;28;20456;-87
2024/03/31 06:58:42;;;;;;;18.43;13.50;;;;;;;;;;5005456;28;20951;-81
2024/03/31 07:01:08;;;;;;;16.63;13.17;;;;;;;;;;5004160;28;20427;-81
2024/03/31 07:03:34;;;;;;;15.47;12.47;;;;;;;;;;5003911;28;20506;-79
2024/03/31 07:05:59;;;;;;;18.40;12.90;;;;;;;;;;5004900;28;20408;-78
2024/03/31 07:08:25;;;;;;;18.40;14.70;;;;;;;;;;5003482;28;20603;-81
2024/03/31 07:10:51;;;;;;;15.37;12.43;;;;;;;;;;5003752;28;20227;-76
2024/03/31 07:13:17;;;;;;;21.77;14.60;;;;;;;;;;5004958;28;20450;-76
2024/03/31 07:15:43;;;;;;;21.10;13.90;;;;;;;;;;5002952;28;20226;-76
2024/03/31 07:18:10;;;;;;;16.80;12.97;;;;;;;;;;5003982;28;20213;-77
2024/03/31 07:20:36;;;;;;;13.73;11.40;;;;;;;;;;5004297;28;20182;-79
2024/03/31 07:23:02;;;;;;;15.10;11.47;;;;;;;;;;5002710;28;20958;-76
2024/03/31 07:25:29;;;;;;;16.83;11.20;;;;;;;;;;5004021;28;20414;-78
2024/03/31 07:27:55;;;;;;;12.90;10.93;;;;;;;;;;5004429;28;20493;-76
2024/03/31 07:30:21;;;;;;;11.93;10.23;;;;;;;;;;5002543;28;20510;-76
2024/03/31 07:32:46;;;;;;;14.57;11.23;;;;;;;;;;5004172;28;20485;-77
2024/03/31 07:35:12;;;;;;;13.53;10.60;;;;;;;;;;5002260;28;20415;-76
2024/03/31 07:37:38;;;;;;;15.63;12.63;;;;;;;;;;5002512;28;20415;-76
2024/03/31 07:40:04;;;;;;;13.77;11.30;;;;;;;;;;5004349;28;20469;-76
2024/03/31 07:42:30;;;;;;;13.30;11.07;;;;;;;;;;5003519;28;20191;-76
2024/03/31 07:44:56;;;;;;;13.83;12.30;;;;;;;;;;5002680;28;20420;-76
2024/03/31 07:47:22;;;;;;;16.63;12.10;;;;;;;;;;5003129;28;20392;-76
2024/03/31 07:49:48;;;;;;;12.77;11.30;;;;;;;;;;5003092;28;20427;-76
2024/03/31 07:52:14;;;;;;;16.53;13.23;;;;;;;;;;5001121;28;20777;-80
2024/03/31 07:54:40;;;;;;;15.00;11.47;;;;;;;;;;5004221;28;20420;-77
2024/03/31 07:57:06;;;;;;;14.53;11.30;;;;;;;;;;5008288;28;20184;-77
2024/03/31 07:59:31;;;;;;;16.23;11.77;;;;;;;;;;5012295;28;20221;-77
2024/03/31 08:01:58;;;;;;;14.83;11.97;;;;;;;;;;5013696;28;20950;-88
2024/03/31 08:04:24;;;;;;;13.70;11.20;;;;;;;;;;5013735;28;20417;-83
2024/03/31 08:06:50;;;;;;;13.57;11.70;;;;;;;;;;5013309;28;20934;-78
2024/03/31 08:09:17;;;;;;;15.60;11.67;;;;;;;;;;5013691;28;20443;-77
2024/03/31 08:11:44;;;;;;;16.83;11.40;;;;;;;;;;5013586;28;20174;-79
2024/03/31 08:14:10;;;;;;;16.53;12.93;;;;;;;;;;5013194;28;20503;-79
2024/03/31 08:16:36;;;;;;;20.23;10.73;;;;;;;;;;5013506;28;20416;-79
2024/03/31 08:19:02;;;;;;;15.03;8.43;;;;;;;;;;5011979;28;20480;-76
2024/03/31 08:21:27;;;;;;;13.40;8.43;;;;;;;;;;5012961;28;20171;-85
2024/03/31 08:23:53;;;;;;;18.47;10.20;;;;;;;;;;5013292;28;20421;-79
2024/03/31 08:26:19;;;;;;;13.20;9.73;;;;;;;;;;5013152;28;20175;-78
2024/03/31 08:28:45;;;;;;;14.07;9.33;;;;;;;;;;5013164;28;20179;-77
2024/03/31 08:31:11;;;;;;;14.33;8.40;;;;;;;;;;5012996;28;20208;-75
2024/03/31 08:33:37;;;;;;;17.23;9.70;;;;;;;;;;5012829;28;20175;-78
2024/03/31 08:36:03;;;;;;;9.07;7.60;;;;;;;;;;5012720;28;20203;-80
2024/03/31 08:38:29;;;;;;;8.87;7.87;;;;;;;;;;5013111;28;20466;-78
2024/03/31 08:40:56;;;;;;;9.43;7.80;;;;;;;;;;5013214;28;20483;-79
2024/03/31 08:43:23;;;;;;;13.07;9.30;;;;;;;;;;5012678;28;20178;-83
2024/03/31 08:45:49;;;;;;;11.10;8.87;;;;;;;;;;5012111;28;21000;-83
2024/03/31 08:48:23;;;;;;;10.80;9.40;;;;;;;;;;5013327;28;20409;-79
2024/03/31 08:50:49;;;;;;;12.03;8.53;;;;;;;;;;5015263;28;20427;-79
2024/03/31 08:53:16;;;;;;;13.87;9.37;;;;;;;;;;5017457;28;20610;-80
2024/03/31 08:55:42;;;;;;;16.37;10.77;;;;;;;;;;5017211;28;20884;-79
2024/03/31 08:58:09;;;;;;;11.13;8.90;;;;;;;;;;5017202;28;20436;-83
2024/03/31 09:00:36;;;;;;;11.83;8.90;;;;;;;;;;5015922;28;20429;-80
2024/03/31 09:03:04;;;;;;;11.50;9.67;;;;;;;;;;5017008;28;20746;-78
2024/03/31 09:05:30;;;;;;;13.30;10.53;;;;;;;;;;5016915;28;20520;-88
2024/03/31 09:07:56;;;;;;;14.23;9.90;;;;;;;;;;5017279;28;20453;-84
2024/03/31 09:10:23;;;;;;;14.10;10.30;;;;;;;;;;5016983;28;20417;-87
2024/03/31 09:12:49;;;;;;;12.17;9.70;;;;;;;;;;5017098;28;20409;-85
2024/03/31 09:15:15;;;;;;;12.07;9.70;;;;;;;;;;5016849;28;20953;-78
2024/03/31 09:17:41;;;;;;;12.27;10.40;;;;;;;;;;5015681;28;20416;-86
2024/03/31 09:20:07;;;;;;;13.47;10.07;;;;;;;;;;5016854;28;20850;-77
2024/03/31 09:22:35;;;;;;;12.33;9.77;;;;;;;;;;5016391;28;20425;-77
2024/03/31 09:25:02;;;;;;;14.23;10.03;;;;;;;;;;5016609;28;20525;-86
2024/03/31 09:27:28;;;;;;;12.90;10.30;;;;;;;;;;5016575;28;20425;-77
2024/03/31 09:29:57;;;;;;;14.57;10.23;;;;;;;;;;5016303;28;20405;-77
2024/03/31 09:32:23;;;;;;;12.50;9.37;;;;;;;;;;5016180;28;20421;-77
2024/03/31 09:34:49;;;;;;;17.60;10.83;;;;;;;;;;5016286;28;20410;-78
2024/03/31 09:37:17;;;;;;;13.63;9.93;;;;;;;;;;5015779;28;20427;-77
2024/03/31 09:39:46;;;;;;;13.77;10.60;;;;;;;;;;5016006;28;20477;-76
2024/03/31 09:42:12;;;;;;;12.37;10.67;;;;;;;;;;5016003;28;20902;-81
2024/03/31 09:44:43;;;;;;;15.53;11.50;;;;;;;;;;5015640;28;20410;-76
2024/03/31 09:47:29;;;;;;;16.70;11.10;;;;;;;;;;5015726;28;20413;-82
2024/03/31 09:50:18;;;;;;;13.23;11.70;;;;;;;;;;5015294;28;20488;-88
2024/03/31 09:52:45;;;;;;;14.00;11.27;;;;;;;;;;5010325;28;20482;-78
2024/03/31 09:55:13;;;;;;;16.33;10.93;;;;;;;;;;5016177;28;20425;-77
2024/03/31 09:57:43;;;;;;;15.00;9.73;;;;;;;;;;5015811;28;20418;-78
2024/03/31 10:00:10;;;;;;;13.93;11.20;;;;;;;;;;5014744;28;20469;-78
2024/03/31 10:02:36;;;;;;;16.00;12.20;;;;;;;;;;5016234;28;20416;-78
2024/03/31 10:05:15;;;;;;;15.47;11.30;;;;;;;;;;5015830;28;20824;-82
2024/03/31 10:07:41;;;;;;;13.10;10.70;;;;;;;;;;5015546;28;20544;-87
2024/03/31 10:10:08;;;;;;;15.33;11.07;;;;;;;;;;5015980;28;20782;-81
2024/03/31 10:12:34;;;;;;;12.40;10.63;;;;;;;;;;5015764;28;20887;-91
2024/03/31 10:15:01;;;;;;;16.50;11.93;;;;;;;;;;5014436;28;20477;-80
2024/03/31 10:17:28;;;;;;;14.23;12.40;;;;;;;;;;5015944;28;20417;-85
2024/03/31 10:19:56;;;;;;;14.60;11.97;;;;;;;;;;5014131;28;20986;-87
2024/03/31 10:22:23;;;;;;;15.50;11.80;;;;;;;;;;5015785;28;20822;-90
2024/03/31 10:24:49;;;;;;;14.33;12.07;;;;;;;;;;5015348;28;20501;-86
2024/03/31 10:27:15;;;;;;;15.47;11.80;;;;;;;;;;4995856;28;20421;-85
2024/03/31 10:29:44;;;;;;;17.33;13.47;;;;;;;;;;4994731;28;20454;-83
2024/03/31 10:32:10;;;;;;;16.40;12.03;;;;;;;;;;4996005;28;20414;-79
2024/03/31 10:34:38;;;;;;;15.37;13.63;;;;;;;;;;4996114;28;20411;-84
2024/03/31 10:37:04;;;;;;;14.77;12.47;;;;;;;;;;4995974;28;20414;-85
2024/03/31 10:39:30;;;;;;;16.83;12.70;;;;;;;;;;4995995;28;20916;-85
2024/03/31 10:41:57;;;;;;;13.93;12.00;;;;;;;;;;4995544;28;20494;-88
2024/03/31 10:44:25;;;;;;;14.60;12.03;;;;;;;;;;4995631;28;20506;-87
2024/03/31 10:46:51;;;;;;;14.03;12.10;;;;;;;;;;4995904;28;20828;-85
2024/03/31 10:49:17;;;;;;;15.37;12.57;;;;;;;;;;5014983;28;20450;-84
2024/03/31 10:51:43;;;;;;;15.80;13.00;;;;;;;;;;5013710;28;20441;-90
2024/03/31 10:54:28;;;;;;;13.50;11.57;;;;;;;;;;5014162;28;20429;-84
2024/03/31 10:57:01;;;;;;;17.03;13.53;;;;;;;;;;5015398;28;20405;-86
2024/03/31 10:59:27;;;;;;;17.77;14.23;;;;;;;;;;5008073;28;20883;-90
2024/03/31 11:01:53;;;;;;;19.67;16.20;;;;;;;;;;4995452;28;20488;-85
2024/03/31 11:04:20;;;;;;;19.90;16.63;;;;;;;;;;4995369;28;20410;-77
2024/03/31 11:06:49;;;;;;;25.20;19.90;;;;;;;;;;4995117;28;20417;-80
2024/03/31 11:09:15;;;;;;;26.00;20.00;;;;;;;;;;4995079;28;20420;-78
2024/03/31 11:11:41;;;;;;;26.73;21.90;;;;;;;;;;4994641;28;20407;-76
2024/03/31 11:14:07;;;;;;;28.77;22.70;;;;;;;;;;4994459;28;20455;-76
2024/03/31 11:16:33;;;;;;;27.07;21.87;;;;;;;;;;4994493;28;20927;-78
2024/03/31 11:18:59;;;;;;;23.60;19.70;;;;;;;;;;4994346;28;20852;-78
2024/03/31 11:21:31;;;;;;;25.70;21.93;;;;;;;;;;4994106;28;20425;-77
2024/03/31 11:23:58;;;;;;;29.57;23.10;;;;;;;;;;4994611;28;20413;-79
2024/03/31 11:26:24;;;;;;;27.73;22.87;;;;;;;;;;4994313;28;20472;-79
2024/03/31 11:28:54;;;;;;;32.37;27.07;;;;;;;;;;4994367;28;20764;-84
2024/03/31 11:31:20;;;;;;;26.33;22.23;;;;;;;;;;4994426;28;20460;-82
2024/03/31 11:33:46;;;;;;;25.10;22.23;;;;;;;;;;4994590;28;20412;-84
2024/03/31 11:36:13;;;;;;;25.30;22.17;;;;;;;;;;4993951;28;20780;-79
2024/03/31 11:38:39;;;;;;;25.17;22.63;;;;;;;;;;4994062;28;20472;-79
2024/03/31 11:41:06;;;;;;;24.80;22.30;;;;;;;;;;4994208;28;20821;-79
2024/03/31 11:43:31;;;;;;;27.27;22.70;;;;;;;;;;4994127;28;20428;-78
2024/03/31 11:45:57;;;;;;;34.23;28.60;;;;;;;;;;4993983;28;20410;-82
2024/03/31 11:48:23;;;;;;;30.13;24.57;;;;;;;;;;4994028;28;20414;-78
2024/03/31 11:50:49;;;;;;;30.40;25.57;;;;;;;;;;4993713;28;20241;-80
2024/03/31 11:53:15;;;;;;;26.90;24.07;;;;;;;;;;4992818;28;20431;-79
2024/03/31 11:55:41;;;;;;;27.27;23.83;;;;;;;;;;4994001;28;20230;-81
2024/03/31 11:58:07;;;;;;;27.43;24.43;;;;;;;;;;4997951;28;20709;-80
2024/03/31 12:00:33;;;;;;;24.63;22.03;;;;;;;;;;5026311;28;20434;-79
2024/03/31 12:03:06;;;;;;;24.60;22.07;;;;;;;;;;5012804;28;20483;-81
2024/03/31 12:05:34;;;;;;;21.37;19.17;;;;;;;;;;5012717;28;20210;-82
2024/03/31 12:08:00;;;;;;;22.50;20.30;;;;;;;;;;5013072;28;20402;-84
2024/03/31 12:10:26;;;;;;;24.93;22.43;;;;;;;;;;5011389;28;20811;-80
2024/03/31 12:12:52;;;;;;;23.70;21.40;;;;;;;;;;5012733;28;20688;-84
2024/03/31 12:15:19;;;;;;;25.87;23.07;;;;;;;;;;5012833;28;20469;-78
2024/03/31 12:17:45;;;;;;;22.80;20.40;;;;;;;;;;5012909;28;20473;-85
2024/03/31 12:20:11;;;;;;;22.33;20.13;;;;;;;;;;5011400;28;20894;-80
2024/03/31 12:22:40;;;;;;;23.50;21.07;;;;;;;;;;5011294;28;20221;-81
2024/03/31 12:25:06;;;;;;;24.90;22.27;;;;;;;;;;5012138;28;20502;-86
2024/03/31 12:27:32;;;;;;;22.47;20.13;;;;;;;;;;5011405;28;20743;-86
2024/03/31 12:29:59;;;;;;;20.47;18.50;;;;;;;;;;5013267;28;20945;-79
2024/03/31 12:32:26;;;;;;;19.93;17.93;;;;;;;;;;5011945;28;20457;-78
2024/03/31 12:34:52;;;;;;;22.20;20.00;;;;;;;;;;5012927;28;20859;-84
2024/03/31 12:37:18;;;;;;;22.67;20.57;;;;;;;;;;5013036;28;20410;-82
2024/03/31 12:39:44;;;;;;;23.50;21.30;;;;;;;;;;5013115;28;20556;-79
2024/03/31 12:42:16;;;;;;;21.83;19.87;;;;;;;;;;5013281;28;20424;-84
2024/03/31 12:44:42;;;;;;;20.37;18.67;;;;;;;;;;5013129;28;20438;-79
2024/03/31 12:47:08;;;;;;;21.03;19.03;;;;;;;;;;5013124;28;20456;-79
2024/03/31 12:49:34;;;;;;;20.13;18.33;;;;;;;;;;5012573;28;20229;-79
2024/03/31 12:52:07;;;;;;;19.07;17.27;;;;;;;;;;5012947;28;20768;-79
2024/03/31 12:54:35;;;;;;;18.10;16.53;;;;;;;;;;5012723;28;20414;-79
2024/03/31 12:57:01;;;;;;;18.53;16.70;;;;;;;;;;5011666;28;20417;-78
2024/03/31 12:59:27;;;;;;;19.83;17.87;;;;;;;;;;5012772;28;20484;-78
2024/03/31 13:01:58;;;;;;;17.43;15.60;;;;;;;;;;5012652;28;20418;-79
2024/03/31 13:04:24;;;;;;;19.57;17.50;;;;;;;;;;5012524;28;20428;-79
2024/03/31 13:06:50;;;;;;;19.13;17.30;;;;;;;;;;5012183;28;20896;-79
2024/03/31 13:09:19;;;;;;;18.63;16.83;;;;;;;;;;5013001;28;20216;-87
2024/03/31 13:11:47;;;;;;;19.50;17.60;;;;;;;;;;5012841;28;20496;-82
2024/03/31 13:14:13;;;;;;;19.07;17.20;;;;;;;;;;5011399;28;20567;-81
2024/03/31 13:16:39;;;;;;;17.67;15.80;;;;;;;;;;5012499;28;20496;-82
2024/03/31 13:19:05;;;;;;;18.30;16.50;;;;;;;;;;5012508;28;20808;-81
2024/03/31 13:21:31;;;;;;;18.10;16.33;;;;;;;;;;5012476;28;20418;-82
2024/03/31 13:23:57;;;;;;;17.00;15.20;;;;;;;;;;5012711;28;20176;-83
2024/03/31 13:26:23;;;;;;;17.40;15.70;;;;;;;;;;5012733;28;20766;-82
2024/03/31 13:28:49;;;;;;;17.87;16.03;;;;;;;;;;5012419;28;21020;-83
2024/03/31 13:31:15;;;;;;;17.80;16.03;;;;;;;;;;5012607;28;20414;-82
2024/03/31 13:33:41;;;;;;;15.97;14.27;;;;;;;;;;5012287;28;20696;-81
2024/03/31 13:36:07;;;;;;;15.70;14.10;;;;;;;;;;5015316;28;20169;-81
2024/03/31 13:38:33;;;;;;;17.27;15.47;;;;;;;;;;5015815;28;20476;-82
2024/03/31 13:40:59;;;;;;;14.73;13.30;;;;;;;;;;5015957;28;20415;-84
2024/03/31 13:43:25;;;;;;;15.67;14.20;;;;;;;;;;5015979;28;20920;-82
2024/03/31 13:45:51;;;;;;;15.03;13.43;;;;;;;;;;5016053;28;20801;-81
2024/03/31 13:48:17;;;;;;;15.43;13.80;;;;;;;;;;5015953;28;20421;-81
2024/03/31 13:50:43;;;;;;;16.67;14.93;;;;;;;;;;5015563;28;20436;-81
2024/03/31 13:53:09;;;;;;;15.57;14.07;;;;;;;;;;5015987;28;20447;-81
2024/03/31 13:55:35;;;;;;;13.47;12.17;;;;;;;;;;5015713;28;20301;-81
2024/03/31 13:58:01;;;;;;;13.47;12.17;;;;;;;;;;5015830;28;20912;-84
2024/03/31 14:00:26;;;;;;;12.77;11.27;;;;;;;;;;5015614;28;20477;-82
2024/03/31 14:02:54;;;;;;;10.97;9.90;;;;;;;;;;5015632;28;20179;-81
2024/03/31 14:05:20;;;;;;;11.17;9.47;;;;;;;;;;5015239;28;20513;-81
2024/03/31 14:07:45;;;;;;;9.90;8.90;;;;;;;;;;5015561;28;20462;-84
2024/03/31 14:10:12;;;;;;;10.10;9.10;;;;;;;;;;5015292;28;20766;-81
2024/03/31 14:12:40;;;;;;;9.60;8.60;;;;;;;;;;5015453;28;20179;-81
2024/03/31 14:15:06;;;;;;;9.20;8.30;;;;;;;;;;5015271;28;20473;-81